createdAt,value
2019-04-14T00:00:18.410Z,16.47
2019-04-14T00:03:00.886Z,16.90
2019-04-14T00:05:31.515Z,15.90
2019-04-14T00:08:00.313Z,16.87
2019-04-14T00:10:29.050Z,15.87
2019-04-14T00:12:57.782Z,16.80
2019-04-14T00:15:32.950Z,17.00
2019-04-14T00:17:56.964Z,17.30
2019-04-14T00:20:25.799Z,15.77
2019-04-14T00:22:55.481Z,15.80
2019-04-14T00:25:24.481Z,17.10
2019-04-14T00:27:54.254Z,16.47
2019-04-14T00:30:25.178Z,16.03
2019-04-14T00:32:55.775Z,16.70
2019-04-14T00:35:32.110Z,18.67
2019-04-14T00:38:19.511Z,15.97
2019-04-14T00:40:53.908Z,17.20
2019-04-14T00:43:33.119Z,16.27
2019-04-14T00:46:19.527Z,16.50
2019-04-14T00:48:49.738Z,17.10
2019-04-14T00:51:18.426Z,17.70
2019-04-14T00:53:47.373Z,16.97
2019-04-14T00:56:17.116Z,18.90
2019-04-14T00:58:45.784Z,17.53
2019-04-14T01:01:15.449Z,17.27
2019-04-14T01:03:44.012Z,16.97
2019-04-14T01:06:12.500Z,17.20
2019-04-14T01:08:41.042Z,16.80
2019-04-14T01:11:09.980Z,19.23
2019-04-14T01:13:39.652Z,17.33
2019-04-14T01:16:13.918Z,17.67
2019-04-14T01:18:38.966Z,16.60
2019-04-14T01:21:08.895Z,18.77
2019-04-14T01:23:39.082Z,18.00
2019-04-14T01:26:07.797Z,17.90
2019-04-14T01:28:37.546Z,18.03
2019-04-14T01:31:07.561Z,18.47
2019-04-14T01:33:36.178Z,18.33
2019-04-14T01:36:05.950Z,16.37
2019-04-14T01:38:34.942Z,16.90
2019-04-14T01:41:04.250Z,17.23
2019-04-14T01:43:34.124Z,17.20
2019-04-14T01:46:13.484Z,16.07
2019-04-14T01:48:33.199Z,16.60
2019-04-14T01:51:07.071Z,14.90
2019-04-14T01:53:37.927Z,15.97
2019-04-14T01:56:22.933Z,15.17
2019-04-14T01:58:53.297Z,17.20
2019-04-14T02:01:26.456Z,15.90
2019-04-14T02:03:56.228Z,17.50
2019-04-14T02:06:25.175Z,16.30
2019-04-14T02:08:54.683Z,15.03
2019-04-14T02:11:23.264Z,14.67
2019-04-14T02:13:52.905Z,15.13
2019-04-14T02:16:30.942Z,14.70
2019-04-14T02:18:55.243Z,16.50
2019-04-14T02:21:23.808Z,16.00
2019-04-14T02:23:52.347Z,16.43
2019-04-14T02:26:24.123Z,17.13
2019-04-14T02:28:52.973Z,15.23
2019-04-14T02:31:46.787Z,16.80
2019-04-14T02:34:26.038Z,18.47
2019-04-14T02:36:52.409Z,16.23
2019-04-14T02:39:24.789Z,17.10
2019-04-14T02:41:59.924Z,17.70
2019-04-14T02:44:24.121Z,17.67
2019-04-14T02:46:57.860Z,18.40
2019-04-14T02:49:18.716Z,16.40
2019-04-14T02:51:50.233Z,17.47
2019-04-14T02:54:23.383Z,18.80
2019-04-14T02:56:58.443Z,18.57
2019-04-14T02:59:22.837Z,17.50
2019-04-14T03:02:09.311Z,17.43
2019-04-14T03:04:19.528Z,17.87
2019-04-14T03:06:54.773Z,18.30
2019-04-14T03:09:28.928Z,18.00
2019-04-14T03:11:51.256Z,18.47
2019-04-14T03:14:23.316Z,17.33
2019-04-14T03:20:05.480Z,16.90
2019-04-14T03:22:37.028Z,18.27
2019-04-14T03:25:08.176Z,16.60
2019-04-14T03:28:22.901Z,16.70
2019-04-14T03:40:44.616Z,17.20
2019-04-14T03:43:13.237Z,19.37
2019-04-14T03:48:34.655Z,18.13
2019-04-14T03:50:37.877Z,18.83
2019-04-14T03:55:39.431Z,18.20
2019-04-14T03:58:00.611Z,18.70
2019-04-14T04:00:29.253Z,16.57
2019-04-14T04:02:57.752Z,17.30
2019-04-14T04:05:26.656Z,16.17
2019-04-14T04:07:56.035Z,17.80
2019-04-14T04:10:24.750Z,17.77
2019-04-14T04:12:53.631Z,16.50
2019-04-14T04:15:23.536Z,19.10
2019-04-14T04:17:53.840Z,18.00
2019-04-14T04:20:24.098Z,18.07
2019-04-14T04:22:58.502Z,17.13
2019-04-14T04:25:29.126Z,18.00
2019-04-14T04:28:06.020Z,18.47
2019-04-14T04:30:36.622Z,18.20
2019-04-14T04:33:24.117Z,18.40
2019-04-14T04:36:01.036Z,18.97
2019-04-14T04:38:31.584Z,18.40
2019-04-14T04:41:00.136Z,17.67
2019-04-14T04:43:29.765Z,17.43
2019-04-14T04:45:58.673Z,18.40
2019-04-14T04:48:28.457Z,18.03
2019-04-14T04:50:57.113Z,17.90
2019-04-14T04:53:26.674Z,19.33
2019-04-14T04:55:55.301Z,18.33
2019-04-14T04:58:24.189Z,18.70
2019-04-14T05:00:54.358Z,18.20
2019-04-14T05:03:23.400Z,17.10
2019-04-14T05:06:28.805Z,19.47
2019-04-14T05:08:59.175Z,16.93
2019-04-14T05:11:29.731Z,16.30
2019-04-14T05:14:00.084Z,17.17
2019-04-14T05:16:28.693Z,17.63
2019-04-14T05:19:11.419Z,17.10
2019-04-14T05:21:27.763Z,17.30
2019-04-14T05:23:56.577Z,17.80
2019-04-14T05:26:25.074Z,18.30
2019-04-14T05:28:54.786Z,17.43
2019-04-14T05:31:26.257Z,17.67
2019-04-14T05:33:54.008Z,16.37
2019-04-14T05:36:25.994Z,16.97
2019-04-14T05:38:54.569Z,16.77
2019-04-14T05:41:24.330Z,16.50
2019-04-14T05:43:57.127Z,16.87
2019-04-14T05:46:23.557Z,16.10
2019-04-14T05:48:52.046Z,14.87
2019-04-14T05:51:22.128Z,17.03
2019-04-14T05:53:52.273Z,17.00
2019-04-14T05:56:21.322Z,16.40
2019-04-14T05:58:51.418Z,15.77
2019-04-14T06:01:20.329Z,14.20
2019-04-14T06:03:49.647Z,17.07
2019-04-14T06:06:18.294Z,14.70
2019-04-14T06:08:46.805Z,17.40
2019-04-14T06:11:15.315Z,15.30
2019-04-14T06:13:43.890Z,15.83
2019-04-14T06:16:12.448Z,15.10
2019-04-14T06:18:41.253Z,16.10
2019-04-14T06:21:09.819Z,16.20
2019-04-14T06:23:38.379Z,15.70
2019-04-14T06:26:06.845Z,14.10
2019-04-14T06:28:35.738Z,16.03
2019-04-14T06:31:22.347Z,15.80
2019-04-14T06:33:52.854Z,14.57
2019-04-14T06:36:37.988Z,16.30
2019-04-14T06:39:15.247Z,16.70
2019-04-14T06:41:44.154Z,15.90
2019-04-14T06:44:12.995Z,13.00
2019-04-14T06:46:41.922Z,13.03
2019-04-14T06:49:10.503Z,15.10
2019-04-14T06:51:39.333Z,15.27
2019-04-14T06:54:07.929Z,13.73
2019-04-14T06:56:36.477Z,15.63
2019-04-14T06:59:05.090Z,15.70
2019-04-14T07:01:33.602Z,14.50
2019-04-14T07:04:02.210Z,15.20
2019-04-14T07:06:30.830Z,14.20
2019-04-14T07:08:59.466Z,14.60
2019-04-14T07:11:28.315Z,14.43
2019-04-14T07:13:56.783Z,15.43
2019-04-14T07:16:25.630Z,13.70
2019-04-14T07:18:54.484Z,16.60
2019-04-14T07:21:23.074Z,13.60
2019-04-14T07:23:51.657Z,15.47
2019-04-14T07:26:21.749Z,15.97
2019-04-14T07:28:56.512Z,16.83
2019-04-14T07:31:38.754Z,15.40
2019-04-14T07:34:24.576Z,16.20
2019-04-14T07:37:03.537Z,14.90
2019-04-14T07:39:33.674Z,15.87
2019-04-14T07:42:03.878Z,19.07
2019-04-14T07:44:50.574Z,15.13
2019-04-14T07:47:29.916Z,18.37
2019-04-14T07:50:00.057Z,14.60
2019-04-14T07:52:36.303Z,17.10
2019-04-14T07:55:11.117Z,14.10
2019-04-14T07:57:57.555Z,15.17
2019-04-14T08:00:44.266Z,11.90
2019-04-14T08:03:14.443Z,13.10
2019-04-14T08:05:44.658Z,14.57
2019-04-14T08:08:13.458Z,13.77
2019-04-14T08:10:41.999Z,14.60
2019-04-14T08:13:10.886Z,16.13
2019-04-14T08:15:39.369Z,13.77
2019-04-14T08:18:07.911Z,13.93
2019-04-14T08:20:36.480Z,15.23
2019-04-14T08:23:05.072Z,15.60
2019-04-14T08:25:33.619Z,15.63
2019-04-14T08:28:02.467Z,14.27
2019-04-14T08:30:31.122Z,14.03
2019-04-14T08:33:00.017Z,11.27
2019-04-14T08:35:28.901Z,13.87
2019-04-14T08:37:57.403Z,13.90
2019-04-14T08:40:26.259Z,12.97
2019-04-14T08:43:02.671Z,13.70
2019-04-14T08:45:44.316Z,13.73
2019-04-14T08:48:17.206Z,14.70
2019-04-14T08:51:01.853Z,15.23
2019-04-14T08:53:47.482Z,14.80
2019-04-14T08:56:17.899Z,13.97
2019-04-14T08:58:48.320Z,14.33
2019-04-14T09:01:27.198Z,12.80
2019-04-14T09:04:03.075Z,12.83
2019-04-14T09:06:35.848Z,11.97
2019-04-14T09:09:18.975Z,13.70
2019-04-14T09:11:49.457Z,12.30
2019-04-14T09:14:18.341Z,13.30
2019-04-14T09:16:47.244Z,13.10
2019-04-14T09:19:15.745Z,14.43
2019-04-14T09:21:44.579Z,13.70
2019-04-14T09:24:13.368Z,11.53
2019-04-14T09:26:42.142Z,12.40
2019-04-14T09:29:10.621Z,13.33
2019-04-14T09:31:39.984Z,11.00
2019-04-14T09:34:08.826Z,12.30
2019-04-14T09:36:37.580Z,12.47
2019-04-14T09:39:07.396Z,11.60
2019-04-14T09:41:35.867Z,12.27
2019-04-14T09:44:04.484Z,13.50
2019-04-14T09:46:33.308Z,11.77
2019-04-14T09:49:02.279Z,11.87
2019-04-14T09:51:30.764Z,13.20
2019-04-14T09:53:59.443Z,13.40
2019-04-14T09:56:28.548Z,11.60
2019-04-14T09:58:57.291Z,12.43
2019-04-14T10:01:26.268Z,13.63
2019-04-14T10:03:54.742Z,12.00
2019-04-14T10:06:26.258Z,12.10
2019-04-14T10:08:55.135Z,13.30
2019-04-14T10:11:23.748Z,12.20
2019-04-14T10:13:52.460Z,13.80
2019-04-14T10:16:21.320Z,12.20
2019-04-14T10:18:49.961Z,10.30
2019-04-14T10:24:58.690Z,11.33
2019-04-14T10:27:27.229Z,11.20
2019-04-14T10:29:56.340Z,11.70
2019-04-14T10:32:24.883Z,11.97
2019-04-14T10:34:53.757Z,9.73
2019-04-14T10:37:22.515Z,9.83
2019-04-14T10:39:51.344Z,10.10
2019-04-14T10:42:20.201Z,10.90
2019-04-14T10:44:48.947Z,11.70
2019-04-14T10:47:17.694Z,12.70
2019-04-14T10:49:46.236Z,9.50
2019-04-14T10:52:15.150Z,10.40
2019-04-14T10:54:43.628Z,11.13
2019-04-14T10:57:12.487Z,11.33
2019-04-14T10:59:41.051Z,11.20
2019-04-14T11:02:09.510Z,11.20
2019-04-14T11:04:37.977Z,10.50
2019-04-14T11:07:10.896Z,10.70
2019-04-14T11:09:39.344Z,9.97
2019-04-14T11:12:08.137Z,10.80
2019-04-14T11:14:36.593Z,9.73
2019-04-14T11:17:05.024Z,11.30
2019-04-14T11:19:33.479Z,11.17
2019-04-14T11:22:02.228Z,11.27
2019-04-14T11:24:30.711Z,10.43
2019-04-14T11:26:59.151Z,11.20
2019-04-14T11:29:27.613Z,11.00
2019-04-14T11:32:06.169Z,11.47
2019-04-14T11:34:47.846Z,11.10
2019-04-14T11:37:20.659Z,10.67
2019-04-14T11:39:49.137Z,11.23
2019-04-14T11:42:17.567Z,9.53
2019-04-14T11:44:46.043Z,12.00
2019-04-14T11:47:16.250Z,12.30
2019-04-14T11:49:45.133Z,11.13
2019-04-14T11:52:13.873Z,11.40
2019-04-14T11:54:42.327Z,12.23
2019-04-14T11:57:10.763Z,11.73
2019-04-14T11:59:43.882Z,11.30
2019-04-14T12:02:16.779Z,11.13
2019-04-14T12:04:46.899Z,13.00
2019-04-14T12:07:19.933Z,9.60
2019-04-14T12:09:56.311Z,11.60
2019-04-14T12:12:25.064Z,11.00
2019-04-14T12:14:53.528Z,13.30
2019-04-14T12:17:22.268Z,12.63
2019-04-14T12:19:50.714Z,12.17
2019-04-14T12:22:19.160Z,13.73
2019-04-14T12:24:47.613Z,11.80
2019-04-14T12:27:16.046Z,10.93
2019-04-14T12:29:45.694Z,9.90
2019-04-14T12:32:15.084Z,14.37
2019-04-14T12:34:43.729Z,12.67
2019-04-14T12:37:12.227Z,13.40
2019-04-14T12:39:40.668Z,12.40
2019-04-14T12:42:11.078Z,12.70
2019-04-14T12:44:41.156Z,12.50
2019-04-14T12:47:28.839Z,14.87
2019-04-14T12:50:04.659Z,12.30
2019-04-14T12:52:33.456Z,11.87
2019-04-14T12:55:02.240Z,11.53
2019-04-14T12:57:47.670Z,12.10
2019-04-14T13:00:24.932Z,10.97
2019-04-14T13:02:54.179Z,12.87
2019-04-14T13:05:22.683Z,12.87
2019-04-14T13:07:51.171Z,10.97
2019-04-14T13:10:20.212Z,13.77
2019-04-14T13:12:48.826Z,11.07
2019-04-14T13:15:17.431Z,14.47
2019-04-14T13:17:46.018Z,13.60
2019-04-14T13:20:14.712Z,11.47
2019-04-14T13:22:43.173Z,11.83
2019-04-14T13:25:11.880Z,13.77
2019-04-14T13:27:40.459Z,12.40
2019-04-14T13:30:12.260Z,13.10
2019-04-14T13:32:40.863Z,12.17
2019-04-14T13:35:09.876Z,12.40
2019-04-14T13:37:38.556Z,13.93
2019-04-14T13:40:07.641Z,12.13
2019-04-14T13:42:36.500Z,13.57
2019-04-14T13:45:06.322Z,12.20
2019-04-14T13:47:35.302Z,10.67
2019-04-14T13:50:06.158Z,13.07
2019-04-14T13:52:46.126Z,11.97
2019-04-14T13:55:06.781Z,12.87
2019-04-14T13:57:35.410Z,12.40
2019-04-14T14:00:06.547Z,12.23
2019-04-14T14:02:35.123Z,12.30
2019-04-14T14:05:03.977Z,13.93
2019-04-14T14:07:32.571Z,11.73
2019-04-14T14:10:01.108Z,11.27
2019-04-14T14:12:34.580Z,11.90
2019-04-14T14:15:21.682Z,11.03
2019-04-14T14:17:51.887Z,12.43
2019-04-14T14:20:27.777Z,11.40
2019-04-14T14:23:13.169Z,11.43
2019-04-14T14:25:45.772Z,11.70
2019-04-14T14:28:14.268Z,11.83
2019-04-14T14:30:42.818Z,12.23
2019-04-14T14:33:11.378Z,11.17
2019-04-14T14:35:39.874Z,11.50
2019-04-14T14:38:08.424Z,12.30
2019-04-14T14:40:36.954Z,11.47
2019-04-14T14:43:05.615Z,9.97
2019-04-14T14:45:35.822Z,12.20
2019-04-14T14:48:18.239Z,12.63
2019-04-14T14:50:48.401Z,11.60
2019-04-14T14:53:17.281Z,11.80
2019-04-14T14:55:45.879Z,12.60
2019-04-14T14:58:14.807Z,10.20
2019-04-14T15:00:43.880Z,9.77
2019-04-14T15:03:12.556Z,10.90
2019-04-14T15:05:41.147Z,10.20
2019-04-14T15:08:09.749Z,10.07
2019-04-14T15:10:38.408Z,11.60
2019-04-14T15:13:07.083Z,9.80
2019-04-14T15:15:35.648Z,11.60
2019-04-14T15:18:04.498Z,11.83
2019-04-14T15:20:33.375Z,11.80
2019-04-14T15:23:02.475Z,10.13
2019-04-14T15:25:31.127Z,11.83
2019-04-14T15:27:59.670Z,10.53
2019-04-14T15:30:28.332Z,10.33
2019-04-14T15:32:57.178Z,12.50
2019-04-14T15:35:25.624Z,11.37
2019-04-14T15:37:54.127Z,11.30
2019-04-14T15:40:22.780Z,11.90
2019-04-14T15:42:51.352Z,11.67
2019-04-14T15:45:20.285Z,10.83
2019-04-14T15:47:48.851Z,12.03
2019-04-14T15:50:17.443Z,10.43
2019-04-14T15:52:46.033Z,10.20
2019-04-14T15:55:16.561Z,10.43
2019-04-14T15:57:46.762Z,10.87
2019-04-14T16:00:23.321Z,12.00
2019-04-14T16:02:56.288Z,11.80
2019-04-14T16:05:26.452Z,11.00
2019-04-14T16:07:56.995Z,10.63
2019-04-14T16:10:42.312Z,10.70
2019-04-14T16:13:12.574Z,10.70
2019-04-14T16:15:42.763Z,10.33
2019-04-14T16:18:16.353Z,12.07
2019-04-14T16:20:46.454Z,10.10
2019-04-14T16:23:14.995Z,10.87
2019-04-14T16:25:48.249Z,10.40
2019-04-14T16:28:21.242Z,10.67
2019-04-14T16:31:07.197Z,10.57
2019-04-14T16:33:53.779Z,9.00
2019-04-14T16:36:22.473Z,9.80
2019-04-14T16:38:51.492Z,11.93
2019-04-14T16:41:20.456Z,11.37
2019-04-14T16:43:49.474Z,10.90
2019-04-14T16:46:18.381Z,10.53
2019-04-14T16:48:47.373Z,11.70
2019-04-14T16:51:17.821Z,12.60
2019-04-14T16:53:47.732Z,10.90
2019-04-14T16:56:17.923Z,9.53
2019-04-14T16:58:51.053Z,10.77
2019-04-14T17:01:21.219Z,10.33
2019-04-14T17:03:49.858Z,9.83
2019-04-14T17:06:18.364Z,10.13
2019-04-14T17:08:47.366Z,10.00
2019-04-14T17:11:15.954Z,10.27
2019-04-14T17:13:46.207Z,9.10
2019-04-14T17:16:16.428Z,10.03
2019-04-14T17:18:55.693Z,9.70
2019-04-14T17:21:40.623Z,10.30
2019-04-14T17:24:16.703Z,9.53
2019-04-14T17:26:49.243Z,8.60
2019-04-14T17:29:19.592Z,10.33
2019-04-14T17:31:58.309Z,10.60
2019-04-14T17:34:34.380Z,8.73
2019-04-14T17:37:13.248Z,9.73
2019-04-14T17:39:43.762Z,10.13
2019-04-14T17:42:19.948Z,9.40
2019-04-14T17:44:50.463Z,10.67
2019-04-14T17:47:20.686Z,10.60
2019-04-14T17:49:53.652Z,8.60
2019-04-14T17:52:40.105Z,9.40
2019-04-14T17:55:12.924Z,10.20
2019-04-14T17:57:52.246Z,8.70
2019-04-14T18:00:25.122Z,9.70
2019-04-14T18:02:55.472Z,10.33
2019-04-14T18:05:31.361Z,9.27
2019-04-14T18:08:01.566Z,10.93
2019-04-14T18:10:31.880Z,9.10
2019-04-14T18:13:11.625Z,9.20
2019-04-14T18:15:50.651Z,8.87
2019-04-14T18:18:39.013Z,9.80
2019-04-14T18:21:09.620Z,9.53
2019-04-14T18:23:38.433Z,9.53
2019-04-14T18:26:07.885Z,11.60
2019-04-14T18:28:38.559Z,9.90
2019-04-14T18:31:08.837Z,11.23
2019-04-14T18:33:39.993Z,11.40
2019-04-14T18:36:10.182Z,10.07
2019-04-14T18:38:40.543Z,10.20
2019-04-14T18:41:13.827Z,10.17
2019-04-14T18:43:50.278Z,9.90
2019-04-14T18:46:20.451Z,11.20
2019-04-14T18:48:50.619Z,10.43
2019-04-14T18:51:20.824Z,10.07
2019-04-14T18:53:57.072Z,10.90
2019-04-14T18:56:29.871Z,9.50
2019-04-14T18:59:16.273Z,9.60
2019-04-14T19:01:52.334Z,9.27
2019-04-14T19:04:20.869Z,8.70
2019-04-14T19:06:49.487Z,9.03
2019-04-14T19:09:18.395Z,8.90
2019-04-14T19:12:04.601Z,8.77
2019-04-14T19:14:35.456Z,8.23
2019-04-14T19:17:08.440Z,8.70
2019-04-14T19:19:38.695Z,8.63
2019-04-14T19:22:07.230Z,8.10
2019-04-14T19:24:35.828Z,9.23
2019-04-14T19:27:04.489Z,7.40
2019-04-14T19:29:33.409Z,8.40
2019-04-14T19:32:01.965Z,7.50
2019-04-14T19:34:30.527Z,7.77
2019-04-14T19:36:59.585Z,7.73
2019-04-14T19:39:28.225Z,8.33
2019-04-14T19:41:56.802Z,7.70
2019-04-14T19:44:25.330Z,6.70
2019-04-14T19:46:53.874Z,6.60
2019-04-14T19:49:22.927Z,7.37
2019-04-14T19:51:51.564Z,6.37
2019-04-14T19:54:20.517Z,7.00
2019-04-14T19:56:49.035Z,7.20
2019-04-14T19:59:17.587Z,6.90
2019-04-14T20:01:46.170Z,6.10
2019-04-14T20:04:14.845Z,7.97
2019-04-14T20:06:43.400Z,7.17
2019-04-14T20:09:11.916Z,6.70
2019-04-14T20:11:40.814Z,6.53
2019-04-14T20:14:09.420Z,6.20
2019-04-14T20:16:42.683Z,5.90
2019-04-14T20:19:29.133Z,6.40
2019-04-14T20:22:02.191Z,6.07
2019-04-14T20:24:32.524Z,7.40
2019-04-14T20:27:19.083Z,5.90
2019-04-14T20:29:49.354Z,6.50
2019-04-14T20:32:22.061Z,7.30
2019-04-14T20:34:51.540Z,6.10
2019-04-14T20:37:20.066Z,7.40
2019-04-14T20:39:49.023Z,6.27
2019-04-14T20:42:17.999Z,7.30
2019-04-14T20:44:46.979Z,7.40
2019-04-14T20:47:16.018Z,7.87
2019-04-14T20:49:44.659Z,7.30
2019-04-14T20:52:13.548Z,7.77
2019-04-14T20:54:42.101Z,6.70
2019-04-14T20:57:10.979Z,6.90
2019-04-14T20:59:39.565Z,6.07
2019-04-14T21:02:21.670Z,7.67
2019-04-14T21:05:07.150Z,7.43
2019-04-14T21:07:40.454Z,7.47
2019-04-14T21:10:13.355Z,7.43
2019-04-14T21:12:55.158Z,7.30
2019-04-14T21:15:30.915Z,8.70
2019-04-14T21:18:16.567Z,7.43
2019-04-14T21:20:52.739Z,6.83
2019-04-14T21:23:25.574Z,7.70
2019-04-14T21:26:00.768Z,7.00
2019-04-14T21:28:31.074Z,7.10
2019-04-14T21:31:09.927Z,6.90
2019-04-14T21:33:56.107Z,8.07
2019-04-14T21:36:29.100Z,8.03
2019-04-14T21:39:02.414Z,7.83
2019-04-14T21:41:32.702Z,7.70
2019-04-14T21:44:01.284Z,7.87
2019-04-14T21:46:29.886Z,6.53
2019-04-14T21:48:58.383Z,8.70
2019-04-14T21:51:28.659Z,7.90
2019-04-14T21:53:57.139Z,8.93
2019-04-14T21:56:27.374Z,8.50
2019-04-14T21:59:13.295Z,8.70
2019-04-14T22:01:58.886Z,8.00
2019-04-14T22:04:29.374Z,8.60
2019-04-14T22:06:59.512Z,8.03
2019-04-14T22:09:29.613Z,8.80
2019-04-14T22:11:59.694Z,6.40
2019-04-14T22:14:28.179Z,7.40
2019-04-14T22:16:56.731Z,7.47
2019-04-14T22:19:25.497Z,9.10
2019-04-14T22:21:54.038Z,8.87
2019-04-14T22:24:22.516Z,8.73
2019-04-14T22:26:51.065Z,8.43
2019-04-14T22:29:19.979Z,9.13
2019-04-14T22:31:48.993Z,10.23
2019-04-14T22:34:17.551Z,9.20
2019-04-14T22:36:46.055Z,10.17
2019-04-14T22:39:16.692Z,9.77
2019-04-14T22:41:45.243Z,9.27
2019-04-14T22:44:13.950Z,9.53
2019-04-14T22:46:42.534Z,8.10
2019-04-14T22:49:11.086Z,9.67
2019-04-14T22:51:39.623Z,10.00
2019-04-14T22:54:08.155Z,8.73
2019-04-14T22:56:39.512Z,10.40
2019-04-14T22:59:06.997Z,9.80
2019-04-14T23:01:37.198Z,11.00
2019-04-14T23:04:07.490Z,11.37
2019-04-14T23:06:53.958Z,10.93
2019-04-14T23:09:30.094Z,9.70
2019-04-14T23:12:03.284Z,11.53
2019-04-14T23:14:42.283Z,10.43
2019-04-14T23:17:12.521Z,10.20
2019-04-14T23:19:43.031Z,9.90
2019-04-14T23:22:19.111Z,11.43
2019-04-14T23:24:51.680Z,9.73
2019-04-14T23:27:20.248Z,10.33
2019-04-14T23:29:48.761Z,10.60
2019-04-14T23:32:17.414Z,11.87
2019-04-14T23:34:45.972Z,13.07
2019-04-14T23:37:14.567Z,12.93
2019-04-14T23:39:43.442Z,10.50
2019-04-14T23:42:11.991Z,12.33
2019-04-14T23:44:40.486Z,11.47
2019-04-14T23:47:09.166Z,10.60
2019-04-14T23:49:38.102Z,10.50
2019-04-14T23:52:06.756Z,11.10
2019-04-14T23:54:35.306Z,12.83
2019-04-14T23:57:05.889Z,12.30
2019-04-14T23:59:34.277Z,12.53
